Time;durP1;ratioP1;P1;durP2;ratioP2;P2;SDS_P1;SDS_P2;PMS_P1;PMS_P2;Temp;Humidity;BMP_temperature;BMP_pressure;BME280_temperature;BME280_humidity;BME280_pressure;Samples;Min_cycle;Max_cycle;Signal;HPM_P1;HPM_P2
2021/12/03 00:00:00;;;;;;;5.68;1.40;;;8.40;98.10;;;;;;5023245;28;20112;-48
2021/12/03 00:02:26;;;;;;;1.88;1.30;;;8.40;98.20;;;;;;5018818;28;20124;-48
2021/12/03 00:04:52;;;;;;;5.25;1.60;;;8.40;98.20;;;;;;5001818;28;20506;-48
2021/12/03 00:07:18;;;;;;;3.67;1.80;;;8.40;98.20;;;;;;5021747;28;20037;-48
2021/12/03 00:09:43;;;;;;;2.63;1.40;;;8.40;98.10;;;;;;5020151;28;20327;-48
2021/12/03 00:12:09;;;;;;;1.15;1.02;;;8.40;98.20;;;;;;5019103;28;20033;-48
2021/12/03 00:14:35;;;;;;;2.28;1.13;;;8.30;98.10;;;;;;5017812;28;20026;-48
2021/12/03 00:17:02;;;;;;;3.05;1.20;;;8.40;98.20;;;;;;5018813;28;20048;-49
2021/12/03 00:19:28;;;;;;;2.42;1.00;;;8.30;98.20;;;;;;5017930;28;20029;-48
2021/12/03 00:21:53;;;;;;;1.40;1.30;;;8.30;98.10;;;;;;5019797;28;20022;-48
2021/12/03 00:24:19;;;;;;;1.70;1.55;;;8.40;98.20;;;;;;5022515;28;20021;-48
2021/12/03 00:26:45;;;;;;;1.73;1.35;;;8.40;98.10;;;;;;5019918;28;20052;-48
2021/12/03 00:29:11;;;;;;;1.27;1.10;;;8.30;98.10;;;;;;5020886;28;20060;-48
2021/12/03 00:31:37;;;;;;;5.90;2.00;;;8.30;98.10;;;;;;5018990;28;20028;-48
2021/12/03 00:34:03;;;;;;;3.17;1.48;;;8.30;98.10;;;;;;4996503;28;20087;-48
2021/12/03 00:36:29;;;;;;;3.35;1.60;;;8.30;98.10;;;;;;5020619;28;20064;-48
2021/12/03 00:38:57;;;;;;;1.40;1.30;;;8.30;98.10;;;;;;5020832;28;20034;-48
2021/12/03 00:41:24;;;;;;;4.32;1.35;;;8.30;98.10;;;;;;5022435;28;20364;-48
2021/12/03 00:43:52;;;;;;;3.30;1.85;;;8.30;98.10;;;;;;5019428;28;20061;-48
2021/12/03 00:46:20;;;;;;;2.13;1.40;;;8.30;98.40;;;;;;5018750;28;20026;-49
2021/12/03 00:48:48;;;;;;;2.55;1.80;;;8.30;98.10;;;;;;5013908;28;20026;-48
2021/12/03 00:51:15;;;;;;;3.42;1.88;;;8.30;98.10;;;;;;5019386;28;20064;-48
2021/12/03 00:53:41;;;;;;;3.00;2.15;;;8.30;98.10;;;;;;5022224;28;20036;-48
2021/12/03 00:56:09;;;;;;;4.00;2.10;;;8.30;98.10;;;;;;5021262;28;20017;-48
2021/12/03 00:58:36;;;;;;;3.05;2.00;;;8.30;98.10;;;;;;5020098;28;20042;-49
2021/12/03 01:01:04;;;;;;;1.98;1.70;;;8.30;98.10;;;;;;5020656;28;20449;-48
2021/12/03 01:03:30;;;;;;;2.97;1.40;;;8.30;98.00;;;;;;5016435;28;20029;-48
2021/12/03 01:05:56;;;;;;;4.68;1.52;;;8.30;98.10;;;;;;5016349;28;20458;-48
2021/12/03 01:08:21;;;;;;;3.42;1.30;;;8.30;98.10;;;;;;5019554;28;20032;-48
2021/12/03 01:10:47;;;;;;;2.22;1.40;;;8.30;98.10;;;;;;5022682;28;20026;-48
2021/12/03 01:13:13;;;;;;;3.08;1.85;;;8.30;98.10;;;;;;5019091;28;20084;-48
2021/12/03 01:15:40;;;;;;;3.63;1.50;;;8.30;98.10;;;;;;5018616;28;20026;-48
2021/12/03 01:18:08;;;;;;;3.58;1.55;;;8.30;98.10;;;;;;5015838;28;20061;-49
2021/12/03 01:20:35;;;;;;;2.67;1.77;;;8.30;98.10;;;;;;5020378;28;20505;-49
2021/12/03 01:23:02;;;;;;;2.13;1.48;;;8.30;98.00;;;;;;5016666;28;20022;-48
2021/12/03 01:25:28;;;;;;;3.10;1.60;;;8.30;98.00;;;;;;5021176;28;20033;-48
2021/12/03 01:27:55;;;;;;;1.77;1.33;;;8.30;98.10;;;;;;5018871;28;20022;-49
2021/12/03 01:30:22;;;;;;;4.03;2.30;;;8.30;98.10;;;;;;5021472;28;20021;-48
2021/12/03 01:32:50;;;;;;;5.97;1.67;;;8.30;98.10;;;;;;5020221;28;20026;-49
2021/12/03 01:35:15;;;;;;;2.88;1.90;;;8.30;98.10;;;;;;5017558;28;20033;-48
2021/12/03 01:37:43;;;;;;;7.63;1.70;;;8.30;98.00;;;;;;5021070;28;20044;-48
2021/12/03 01:40:13;;;;;;;1.42;1.30;;;8.30;98.10;;;;;;5018604;28;20029;-48
2021/12/03 01:42:39;;;;;;;4.28;1.88;;;8.30;98.10;;;;;;5019122;28;20030;-48
2021/12/03 01:45:08;;;;;;;2.08;1.35;;;8.30;98.00;;;;;;5020586;28;20113;-48
2021/12/03 01:47:34;;;;;;;5.23;1.50;;;8.30;98.00;;;;;;5018703;28;20025;-48
2021/12/03 01:50:00;;;;;;;2.70;1.80;;;8.30;98.00;;;;;;5020075;28;20025;-48
2021/12/03 01:52:25;;;;;;;2.25;1.33;;;8.30;98.00;;;;;;5022900;28;20025;-48
2021/12/03 01:54:53;;;;;;;5.40;2.22;;;8.30;97.90;;;;;;5025114;28;20021;-48
2021/12/03 01:57:19;;;;;;;4.15;2.10;;;8.30;98.00;;;;;;5019888;28;20176;-48
2021/12/03 01:59:45;;;;;;;2.10;1.63;;;8.30;98.00;;;;;;5024873;28;20172;-48
2021/12/03 02:02:11;;;;;;;3.95;1.65;;;8.30;98.00;;;;;;5022360;28;20041;-49
2021/12/03 02:04:36;;;;;;;5.78;1.85;;;8.30;98.00;;;;;;5022055;28;20029;-48
2021/12/03 02:07:02;;;;;;;4.15;2.03;;;8.30;97.90;;;;;;5022488;28;20069;-48
2021/12/03 02:09:28;;;;;;;2.78;1.92;;;8.30;97.90;;;;;;5024100;28;20040;-48
2021/12/03 02:11:54;;;;;;;2.50;1.70;;;8.30;97.90;;;;;;5022359;28;20087;-49
2021/12/03 02:14:20;;;;;;;2.05;1.25;;;8.30;97.90;;;;;;5024457;28;20033;-48
2021/12/03 02:16:46;;;;;;;8.10;1.92;;;8.30;97.90;;;;;;5020981;28;20393;-48
2021/12/03 02:19:12;;;;;;;2.78;1.33;;;8.30;97.90;;;;;;5020423;28;20603;-48
2021/12/03 02:21:38;;;;;;;3.13;1.65;;;8.20;97.90;;;;;;5024074;28;20076;-48
2021/12/03 02:24:05;;;;;;;3.60;2.03;;;8.30;97.90;;;;;;5017646;28;20022;-48
2021/12/03 02:26:31;;;;;;;4.28;2.20;;;8.30;97.90;;;;;;5022460;28;20350;-49
2021/12/03 02:28:56;;;;;;;4.85;1.88;;;8.20;97.80;;;;;;5022369;28;20535;-48
2021/12/03 02:31:24;;;;;;;2.75;1.83;;;8.30;97.90;;;;;;5021664;28;20259;-48
2021/12/03 02:33:50;;;;;;;5.53;2.08;;;8.30;97.90;;;;;;5016804;28;20034;-48
2021/12/03 02:36:17;;;;;;;3.17;2.22;;;8.30;97.90;;;;;;5020587;28;20026;-48
2021/12/03 02:38:43;;;;;;;3.75;1.95;;;8.30;97.90;;;;;;5026271;28;20033;-48
2021/12/03 02:41:10;;;;;;;3.58;2.00;;;8.20;97.90;;;;;;5022308;28;20052;-48
2021/12/03 02:43:36;;;;;;;2.35;1.88;;;8.20;97.80;;;;;;5023534;28;20022;-48
2021/12/03 02:46:02;;;;;;;2.88;1.95;;;8.30;97.90;;;;;;5020913;28;20029;-49
2021/12/03 02:48:31;;;;;;;4.93;2.15;;;8.30;97.90;;;;;;5020453;28;20456;-48
2021/12/03 02:50:57;;;;;;;1.65;1.45;;;8.30;97.90;;;;;;5020912;28;20075;-49
2021/12/03 02:53:22;;;;;;;2.58;2.00;;;8.20;97.80;;;;;;5023893;28;20113;-48
2021/12/03 02:55:49;;;;;;;3.08;2.00;;;8.20;97.80;;;;;;5020981;28;20136;-48
2021/12/03 02:58:15;;;;;;;3.53;2.10;;;8.20;97.80;;;;;;5022201;28;20544;-49
2021/12/03 03:00:43;;;;;;;2.42;1.52;;;8.20;97.80;;;;;;5022156;28;20192;-48
2021/12/03 03:03:08;;;;;;;4.13;1.80;;;8.20;97.80;;;;;;5021550;28;20029;-48
2021/12/03 03:05:34;;;;;;;4.60;2.60;;;8.20;97.80;;;;;;5019845;28;20014;-48
2021/12/03 03:08:00;;;;;;;5.95;3.13;;;8.20;97.80;;;;;;5019505;28;20603;-48
2021/12/03 03:10:29;;;;;;;4.68;2.53;;;8.30;97.80;;;;;;5024173;28;20029;-48
2021/12/03 03:12:57;;;;;;;6.30;2.85;;;8.20;97.80;;;;;;5021236;28;20030;-48
2021/12/03 03:15:22;;;;;;;3.85;2.58;;;8.20;97.80;;;;;;5021428;28;20040;-48
2021/12/03 03:17:48;;;;;;;2.60;2.00;;;8.30;97.80;;;;;;5022821;28;20034;-48
2021/12/03 03:20:15;;;;;;;3.28;1.98;;;8.20;97.80;;;;;;5018104;28;20022;-48
2021/12/03 03:22:42;;;;;;;2.10;1.52;;;8.20;97.70;;;;;;5023936;28;20022;-48
2021/12/03 03:25:13;;;;;;;4.30;2.13;;;8.20;97.80;;;;;;5015737;28;20771;-48
2021/12/03 03:27:39;;;;;;;4.30;2.00;;;8.20;97.70;;;;;;5015184;28;20032;-48
2021/12/03 03:30:08;;;;;;;5.30;2.95;;;8.20;97.80;;;;;;5020016;28;20351;-48
2021/12/03 03:32:34;;;;;;;4.30;2.15;;;8.20;97.80;;;;;;5023237;28;20470;-48
2021/12/03 03:35:00;;;;;;;4.25;2.45;;;8.20;97.70;;;;;;5016675;28;20037;-48
2021/12/03 03:37:26;;;;;;;2.47;1.95;;;8.20;97.70;;;;;;5020114;28;20184;-48
2021/12/03 03:39:52;;;;;;;5.70;1.80;;;8.20;97.70;;;;;;5023432;28;20428;-49
2021/12/03 03:42:18;;;;;;;5.60;2.03;;;8.20;97.60;;;;;;5015386;28;20109;-49
2021/12/03 03:44:44;;;;;;;3.70;1.65;;;8.20;97.70;;;;;;5021013;28;20372;-49
2021/12/03 03:47:10;;;;;;;2.50;1.90;;;8.20;97.80;;;;;;5020584;28;20112;-48
2021/12/03 03:49:36;;;;;;;4.93;2.05;;;8.20;97.70;;;;;;5012009;28;20073;-49
2021/12/03 03:52:04;;;;;;;3.47;2.40;;;8.20;97.70;;;;;;5022677;28;20057;-49
2021/12/03 03:54:29;;;;;;;3.05;1.92;;;8.20;97.70;;;;;;5019369;28;20033;-48
2021/12/03 03:56:55;;;;;;;3.15;1.80;;;8.20;97.60;;;;;;5022408;28;20083;-48
2021/12/03 03:59:21;;;;;;;5.93;2.38;;;8.20;97.60;;;;;;5020062;28;20076;-48
2021/12/03 04:01:49;;;;;;;2.50;1.75;;;8.20;97.60;;;;;;5019150;28;20030;-48
2021/12/03 04:04:16;;;;;;;2.67;2.05;;;8.20;97.70;;;;;;5021246;28;20471;-48
2021/12/03 04:06:42;;;;;;;5.55;2.15;;;8.20;97.60;;;;;;5015505;28;20030;-48
2021/12/03 04:09:08;;;;;;;4.45;2.22;;;8.20;97.70;;;;;;5018415;28;20476;-49
2021/12/03 04:11:34;;;;;;;3.03;2.15;;;8.20;97.70;;;;;;5022490;28;20065;-48
2021/12/03 04:14:00;;;;;;;2.75;1.95;;;8.20;97.60;;;;;;5019146;28;20060;-48
2021/12/03 04:16:26;;;;;;;5.32;2.33;;;8.20;97.60;;;;;;5020267;28;20053;-48
2021/12/03 04:18:53;;;;;;;5.25;2.40;;;8.20;97.70;;;;;;5019211;28;20034;-48
2021/12/03 04:21:19;;;;;;;5.03;2.00;;;8.20;97.60;;;;;;5019188;28;20361;-48
2021/12/03 04:23:44;;;;;;;5.32;2.40;;;8.20;97.70;;;;;;5020364;28;20456;-48
2021/12/03 04:26:10;;;;;;;3.33;2.22;;;8.20;97.60;;;;;;5021632;28;20028;-48
2021/12/03 04:28:36;;;;;;;3.40;2.15;;;8.20;97.60;;;;;;5018386;28;20471;-48
2021/12/03 04:31:02;;;;;;;3.75;2.30;;;8.20;97.60;;;;;;5019504;28;20028;-48
2021/12/03 04:33:28;;;;;;;6.03;2.75;;;8.20;97.60;;;;;;5022342;28;20021;-48
2021/12/03 04:35:54;;;;;;;4.45;2.22;;;8.20;97.60;;;;;;5013261;28;20030;-48
2021/12/03 04:38:20;;;;;;;3.95;2.63;;;8.20;97.60;;;;;;5021621;28;20041;-49
2021/12/03 04:40:46;;;;;;;5.43;2.25;;;8.20;97.50;;;;;;5020783;28;20021;-48
2021/12/03 04:43:12;;;;;;;3.42;2.25;;;8.20;97.50;;;;;;5021132;28;20026;-48
2021/12/03 04:45:38;;;;;;;3.80;2.38;;;8.20;97.60;;;;;;5018781;28;20073;-48
2021/12/03 04:48:05;;;;;;;3.22;2.33;;;8.20;97.60;;;;;;5018584;28;20022;-48
2021/12/03 04:50:35;;;;;;;3.55;2.13;;;8.20;97.60;;;;;;5013896;28;20360;-48
2021/12/03 04:53:00;;;;;;;4.53;2.25;;;8.20;97.60;;;;;;5019686;28;20054;-49
2021/12/03 04:55:26;;;;;;;4.45;2.78;;;8.20;97.50;;;;;;5018650;28;20108;-48
2021/12/03 04:57:53;;;;;;;4.30;2.65;;;8.20;97.50;;;;;;5015911;28;20033;-49
2021/12/03 05:00:52;;;;;;;2.85;1.73;;;8.20;97.50;;;;;;5018626;28;20036;-48
2021/12/03 05:03:18;;;;;;;2.90;1.92;;;8.20;97.50;;;;;;5014477;28;20042;-48
2021/12/03 05:05:52;;;;;;;2.08;1.75;;;8.20;97.50;;;;;;5015521;28;20029;-49
2021/12/03 05:08:18;;;;;;;4.03;2.00;;;8.20;97.50;;;;;;5018516;28;20373;-48
2021/12/03 05:10:44;;;;;;;5.47;2.50;;;8.20;97.50;;;;;;5019926;28;20379;-48
2021/12/03 05:13:13;;;;;;;4.22;2.55;;;8.20;97.50;;;;;;5021421;28;20044;-48
2021/12/03 05:15:41;;;;;;;2.58;2.03;;;8.20;97.50;;;;;;5017778;28;20057;-48
2021/12/03 05:18:09;;;;;;;2.70;2.00;;;8.20;97.50;;;;;;5019871;28;20057;-48
2021/12/03 05:20:35;;;;;;;2.80;1.88;;;8.20;97.50;;;;;;5017213;28;20077;-49
2021/12/03 05:23:00;;;;;;;2.95;2.38;;;8.20;97.40;;;;;;5022178;28;20030;-49
2021/12/03 05:25:26;;;;;;;2.55;2.03;;;8.20;97.50;;;;;;5022237;28;20108;-48
2021/12/03 05:27:53;;;;;;;8.60;2.15;;;8.20;97.50;;;;;;5022312;28;20441;-48
2021/12/03 05:30:19;;;;;;;4.68;2.80;;;8.20;97.40;;;;;;5025829;28;20036;-48
2021/12/03 05:32:45;;;;;;;3.65;1.98;;;8.20;97.40;;;;;;5022473;28;20084;-48
2021/12/03 05:35:12;;;;;;;2.72;1.70;;;8.20;97.40;;;;;;5023584;28;20037;-48
2021/12/03 05:37:37;;;;;;;2.00;1.50;;;8.20;97.50;;;;;;5021695;28;20045;-48
2021/12/03 05:40:04;;;;;;;3.72;2.10;;;8.20;97.40;;;;;;5025399;28;20034;-49
2021/12/03 05:42:30;;;;;;;3.35;1.92;;;8.20;97.50;;;;;;5023677;28;20116;-48
2021/12/03 05:44:58;;;;;;;3.97;2.15;;;8.20;97.50;;;;;;5019791;28;20117;-48
2021/12/03 05:47:23;;;;;;;2.28;1.58;;;8.20;97.30;;;;;;5024855;28;20037;-49
2021/12/03 05:49:49;;;;;;;2.10;1.58;;;8.20;97.50;;;;;;5018675;28;20029;-48
2021/12/03 05:52:15;;;;;;;1.60;1.48;;;8.20;97.40;;;;;;5022374;28;20428;-48
2021/12/03 05:54:40;;;;;;;3.17;1.88;;;8.20;97.40;;;;;;5022717;28;20018;-48
2021/12/03 05:57:06;;;;;;;2.75;2.03;;;8.20;97.30;;;;;;5022296;28;20368;-48
2021/12/03 05:59:32;;;;;;;3.38;2.40;;;8.20;97.30;;;;;;5021271;28;20040;-48
2021/12/03 06:01:57;;;;;;;5.25;2.15;;;8.20;97.30;;;;;;5023416;28;20037;-48
2021/12/03 06:04:23;;;;;;;3.40;2.10;;;8.20;97.30;;;;;;5023065;28;20032;-49
2021/12/03 06:06:48;;;;;;;4.65;2.20;;;8.20;97.30;;;;;;5020283;28;20516;-48
2021/12/03 06:09:14;;;;;;;4.30;1.90;;;8.20;97.30;;;;;;5018410;28;20025;-48
2021/12/03 06:11:40;;;;;;;2.15;1.90;;;8.20;97.30;;;;;;5018842;28;20350;-49
2021/12/03 06:14:06;;;;;;;1.83;1.48;;;8.20;97.30;;;;;;5022243;28;20021;-48
2021/12/03 06:16:31;;;;;;;1.80;1.70;;;8.20;97.30;;;;;;5023462;28;20048;-48
2021/12/03 06:18:57;;;;;;;4.63;2.40;;;8.20;97.30;;;;;;5019288;28;20123;-49
2021/12/03 06:21:22;;;;;;;3.45;1.85;;;8.20;97.20;;;;;;5021525;28;20033;-48
2021/12/03 06:23:48;;;;;;;3.90;1.98;;;8.20;97.20;;;;;;5018970;28;20022;-48
2021/12/03 06:26:14;;;;;;;4.07;2.63;;;8.20;97.20;;;;;;5023368;28;20025;-48
2021/12/03 06:28:40;;;;;;;2.45;1.80;;;8.20;97.20;;;;;;5021525;28;20029;-48
2021/12/03 06:31:07;;;;;;;6.03;2.63;;;8.10;97.00;;;;;;5019096;28;20042;-48
2021/12/03 06:33:33;;;;;;;4.13;2.30;;;8.20;97.00;;;;;;5024107;28;20352;-48
2021/12/03 06:35:58;;;;;;;5.22;2.50;;;8.20;96.80;;;;;;5015420;28;20045;-48
2021/12/03 06:38:25;;;;;;;3.63;2.03;;;8.10;96.60;;;;;;5025070;28;20033;-49
2021/12/03 06:40:52;;;;;;;4.13;2.15;;;8.10;96.60;;;;;;5019757;28;20025;-48
2021/12/03 06:43:18;;;;;;;2.65;2.33;;;8.20;96.50;;;;;;5021802;28;20032;-49
2021/12/03 06:45:44;;;;;;;2.83;2.13;;;8.10;96.50;;;;;;5022581;28;20136;-49
2021/12/03 06:48:10;;;;;;;3.60;2.15;;;8.10;96.50;;;;;;5000862;28;20014;-48
2021/12/03 06:50:37;;;;;;;3.55;2.45;;;8.10;96.50;;;;;;5020924;28;20040;-48
2021/12/03 06:55:50;;;;;;;2.50;1.60;;;8.10;96.60;;;;;;5019844;28;20100;-48
2021/12/03 06:58:18;;;;;;;3.58;2.13;;;8.10;96.50;;;;;;5018568;28;20050;-48
2021/12/03 07:00:46;;;;;;;2.63;2.08;;;8.10;96.60;;;;;;5022543;28;20026;-48
2021/12/03 07:03:12;;;;;;;5.18;1.85;;;8.10;96.60;;;;;;5021152;28;20454;-48
2021/12/03 07:05:38;;;;;;;1.83;1.60;;;8.10;96.50;;;;;;5023893;28;20336;-49
2021/12/03 07:08:04;;;;;;;4.35;2.22;;;8.10;96.60;;;;;;5033230;28;20026;-48
2021/12/03 07:10:30;;;;;;;2.35;1.42;;;8.10;96.60;;;;;;5026957;28;20447;-48
2021/12/03 07:12:56;;;;;;;2.47;1.75;;;8.10;96.70;;;;;;5025737;28;20029;-48
2021/12/03 07:15:22;;;;;;;4.15;2.38;;;8.10;96.70;;;;;;5026367;28;20029;-48
2021/12/03 07:17:50;;;;;;;1.65;1.55;;;8.10;96.70;;;;;;5021224;28;20040;-48
2021/12/03 07:20:17;;;;;;;3.42;2.15;;;8.10;96.70;;;;;;5016622;28;20058;-48
2021/12/03 07:22:43;;;;;;;2.30;1.30;;;8.10;96.70;;;;;;5022841;28;20030;-48
2021/12/03 07:25:09;;;;;;;4.43;2.33;;;8.10;96.70;;;;;;5026147;28;20112;-48
2021/12/03 07:27:35;;;;;;;2.38;1.63;;;8.10;96.70;;;;;;5020174;28;20026;-48
2021/12/03 07:30:02;;;;;;;3.78;2.38;;;8.10;96.80;;;;;;5024872;28;20036;-48
2021/12/03 07:32:29;;;;;;;4.70;2.25;;;8.10;96.70;;;;;;5014716;28;20029;-48
2021/12/03 07:34:56;;;;;;;2.95;1.55;;;8.10;96.70;;;;;;5023466;28;20080;-48
2021/12/03 07:37:21;;;;;;;2.47;1.90;;;8.10;96.70;;;;;;5025019;28;20061;-48
2021/12/03 07:39:47;;;;;;;5.72;2.22;;;8.10;96.80;;;;;;5033359;28;20456;-48
2021/12/03 07:42:13;;;;;;;2.85;1.88;;;8.10;96.80;;;;;;5025360;28;20029;-48
2021/12/03 07:44:38;;;;;;;2.08;1.63;;;8.10;96.70;;;;;;5017745;28;20017;-48
2021/12/03 07:47:04;;;;;;;3.70;1.60;;;8.10;96.70;;;;;;5032797;28;20448;-48
2021/12/03 07:49:30;;;;;;;2.40;1.52;;;8.10;96.80;;;;;;5026266;28;20506;-48
2021/12/03 07:51:56;;;;;;;3.20;1.80;;;8.10;96.80;;;;;;5021878;28;20068;-48
2021/12/03 07:54:23;;;;;;;5.03;1.70;;;8.10;96.70;;;;;;5026949;28;20053;-48
2021/12/03 07:56:49;;;;;;;2.88;1.88;;;8.10;96.80;;;;;;5038229;28;20408;-48
2021/12/03 07:59:14;;;;;;;4.78;1.40;;;8.10;96.80;;;;;;5033205;28;20060;-48
2021/12/03 08:01:47;;;;;;;2.05;1.73;;;8.10;96.80;;;;;;5023976;28;20022;-48
2021/12/03 08:04:14;;;;;;;2.80;1.50;;;8.10;96.80;;;;;;5027901;28;20586;-48
2021/12/03 08:06:42;;;;;;;4.05;1.85;;;8.10;96.80;;;;;;5026502;28;20495;-48
2021/12/03 08:09:10;;;;;;;2.00;1.63;;;8.10;96.80;;;;;;5018102;28;20030;-48
2021/12/03 08:11:38;;;;;;;5.50;1.85;;;8.10;96.80;;;;;;5022753;28;20369;-48
2021/12/03 08:14:04;;;;;;;2.22;2.03;;;8.10;96.60;;;;;;5031725;28;20021;-48
2021/12/03 08:16:29;;;;;;;3.80;1.90;;;8.20;96.70;;;;;;5030445;28;20034;-48
2021/12/03 08:18:55;;;;;;;2.40;1.40;;;8.20;96.50;;;;;;5025591;28;20044;-48
2021/12/03 08:21:20;;;;;;;1.95;1.73;;;8.10;96.50;;;;;;5024134;28;20499;-48
2021/12/03 08:23:48;;;;;;;2.13;1.50;;;8.10;96.60;;;;;;5038699;28;20024;-48
2021/12/03 08:26:14;;;;;;;4.15;1.52;;;8.10;96.60;;;;;;5022438;28;20076;-48
2021/12/03 08:28:39;;;;;;;3.67;2.13;;;8.10;96.60;;;;;;5026881;28;20033;-48
2021/12/03 08:31:05;;;;;;;5.90;2.45;;;8.10;96.50;;;;;;5023401;28;20025;-48
2021/12/03 08:33:31;;;;;;;7.07;2.47;;;8.20;96.50;;;;;;5033376;28;20025;-48
2021/12/03 08:35:56;;;;;;;2.88;1.98;;;8.20;96.60;;;;;;5023941;28;20032;-50
2021/12/03 08:38:22;;;;;;;5.43;1.67;;;8.20;96.60;;;;;;5028907;28;20040;-48
2021/12/03 08:40:47;;;;;;;3.65;1.90;;;8.20;96.50;;;;;;5032827;28;20377;-48
2021/12/03 08:43:13;;;;;;;2.95;1.73;;;8.20;96.60;;;;;;5029983;28;20363;-48
2021/12/03 08:45:39;;;;;;;2.33;1.45;;;8.20;96.60;;;;;;5028169;28;20021;-48
2021/12/03 08:48:06;;;;;;;6.43;2.65;;;8.20;96.70;;;;;;5028103;28;20026;-48
2021/12/03 08:50:36;;;;;;;2.20;1.75;;;8.20;96.70;;;;;;5022787;28;20040;-48
2021/12/03 08:55:48;;;;;;;2.50;1.85;;;8.30;97.10;;;;;;5023349;28;20091;-48
2021/12/03 08:58:16;;;;;;;2.60;1.27;;;8.30;97.10;;;;;;5036240;28;20460;-49
2021/12/03 09:00:43;;;;;;;4.10;1.50;;;8.30;97.30;;;;;;5021604;28;20341;-48
2021/12/03 09:03:08;;;;;;;3.30;2.00;;;8.30;97.30;;;;;;5020761;28;20030;-49
2021/12/03 09:05:36;;;;;;;1.50;1.38;;;8.40;97.30;;;;;;5023395;28;20074;-48
2021/12/03 09:08:02;;;;;;;4.38;1.65;;;8.40;97.40;;;;;;5029126;28;20253;-48
2021/12/03 09:10:28;;;;;;;1.83;1.52;;;8.40;97.50;;;;;;5024323;28;20512;-49
2021/12/03 09:12:54;;;;;;;4.53;1.65;;;8.40;97.70;;;;;;5025642;28;20037;-48
2021/12/03 09:15:32;;;;;;;3.35;1.60;;;8.50;98.10;;;;;;5035282;28;20048;-49
2021/12/03 09:18:12;;;;;;;2.40;1.75;;;8.60;98.20;;;;;;5022215;28;20036;-49
2021/12/03 09:20:52;;;;;;;6.47;1.75;;;8.60;98.10;;;;;;5026529;28;20030;-48
2021/12/03 09:23:26;;;;;;;1.55;1.42;;;8.60;98.20;;;;;;5023756;28;20104;-48
2021/12/03 09:25:56;;;;;;;1.88;1.45;;;8.60;98.00;;;;;;5027305;28;20018;-49
2021/12/03 09:28:26;;;;;;;1.63;1.37;;;8.60;98.20;;;;;;5023452;28;20029;-49
2021/12/03 09:30:52;;;;;;;3.88;1.42;;;8.60;98.10;;;;;;5020980;28;20272;-48
2021/12/03 09:33:22;;;;;;;1.88;1.23;;;8.70;98.10;;;;;;5030779;28;20036;-49
2021/12/03 09:35:54;;;;;;;1.50;1.37;;;8.70;98.00;;;;;;5031416;28;20021;-48
2021/12/03 09:38:20;;;;;;;1.83;1.05;;;8.70;97.90;;;;;;5017701;28;20045;-49
2021/12/03 09:40:46;;;;;;;1.08;0.98;;;8.70;97.80;;;;;;5021358;28;20021;-48
2021/12/03 09:43:13;;;;;;;0.32;0.32;;;8.80;97.60;;;;;;5030940;28;20388;-49
2021/12/03 09:45:43;;;;;;;1.75;1.17;;;8.80;97.70;;;;;;5025598;28;20457;-49
2021/12/03 09:48:28;;;;;;;0.93;0.65;;;8.80;97.60;;;;;;5021967;28;20026;-48
2021/12/03 09:50:54;;;;;;;2.28;1.27;;;8.90;97.40;;;;;;5032960;28;20032;-48
2021/12/03 09:53:35;;;;;;;2.00;0.82;;;8.80;97.50;;;;;;5024150;28;20034;-48
2021/12/03 09:56:01;;;;;;;2.10;1.50;;;8.90;97.40;;;;;;5020324;28;20029;-49
2021/12/03 10:01:11;;;;;;;2.47;1.63;;;8.90;97.50;;;;;;5018790;28;20048;-49
2021/12/03 10:41:56;;;;;;;4.63;2.65;;;9.00;98.60;;;;;;5029554;28;20025;-48
2021/12/03 11:08:11;;;;;;;2.65;1.90;;;9.20;98.10;;;;;;5027701;28;20076;-49
2021/12/03 11:19:53;;;;;;;2.40;1.63;;;9.20;98.20;;;;;;5030591;28;20539;-49
2021/12/03 11:28:22;;;;;;;1.85;1.27;;;9.20;97.90;;;;;;5034321;28;20087;-48
2021/12/03 11:56:56;;;;;;;0.55;0.55;;;9.20;97.50;;;;;;4953469;28;20035;-48
2021/12/03 12:24:28;;;;;;;3.20;1.92;;;9.20;97.30;;;;;;5028436;28;20033;-48
2021/12/03 13:43:05;;;;;;;2.78;2.08;;;9.00;96.80;;;;;;5025472;28;20113;-49
2021/12/03 14:00:35;;;;;;;3.60;1.52;;;9.00;97.00;;;;;;5021154;28;20034;-49
2021/12/03 14:41:11;;;;;;;3.35;1.83;;;8.70;91.40;;;;;;5018446;28;20020;-49
2021/12/03 14:43:45;;;;;;;;;;;8.80;91.40;;;;;;5020696;28;20456;-49
2021/12/03 14:51:45;;;;;;;1.10;1.00;;;8.70;91.70;;;;;;5025780;28;20433;-49
2021/12/03 14:56:44;;;;;;;4.57;2.28;;;8.70;91.80;;;;;;5024148;28;20069;-49
2021/12/03 14:59:28;;;;;;;2.67;1.55;;;8.70;92.00;;;;;;5025890;28;20432;-49
2021/12/03 15:02:06;;;;;;;6.13;2.03;;;8.70;91.90;;;;;;5024322;28;20025;-49
2021/12/03 15:04:58;;;;;;;1.45;0.77;;;8.70;92.20;;;;;;5025841;28;20044;-49
2021/12/03 15:07:32;;;;;;;1.15;1.08;;;8.70;92.40;;;;;;5026843;28;20057;-49
2021/12/03 15:09:59;;;;;;;4.53;2.08;;;8.70;92.40;;;;;;5022255;28;20116;-50
2021/12/03 15:26:12;;;;;;;4.47;1.38;;;8.70;92.90;;;;;;5021891;28;20041;-49
2021/12/03 15:31:42;;;;;;;0.60;0.57;;;8.70;93.10;;;;;;5020449;28;20022;-49
2021/12/03 15:34:23;;;;;;;4.00;1.45;;;8.70;93.10;;;;;;5024714;28;20060;-49
2021/12/03 15:56:09;;;;;;;1.92;1.48;;;8.70;93.60;;;;;;5020614;28;20419;-49
2021/12/03 16:06:47;;;;;;;1.55;1.20;;;8.60;93.70;;;;;;5026471;28;20034;-49
2021/12/03 16:15:15;;;;;;;2.28;1.50;;;8.60;93.90;;;;;;5025988;28;20032;-49
2021/12/03 16:44:18;;;;;;;3.95;2.00;;;8.60;94.10;;;;;;5020108;28;20419;-49
2021/12/03 16:51:48;;;;;;;5.45;2.58;;;8.60;94.30;;;;;;5019745;28;20044;-49
2021/12/03 16:54:20;;;;;;;5.25;2.83;;;8.60;94.30;;;;;;5020019;28;20053;-49
2021/12/03 16:56:49;;;;;;;3.67;2.65;;;8.50;94.30;;;;;;5021565;28;21725;-49
2021/12/03 16:59:15;;;;;;;3.70;2.63;;;8.50;94.30;;;;;;5018315;28;20041;-49
2021/12/03 17:08:05;;;;;;;1.40;1.30;;;8.50;94.30;;;;;;5021701;28;20036;-49
2021/12/03 17:28:45;;;;;;;5.15;2.60;;;8.50;94.60;;;;;;5015082;28;20101;-49
2021/12/03 17:44:39;;;;;;;3.53;1.92;;;8.50;94.60;;;;;;5023849;28;20117;-49
2021/12/03 17:49:43;;;;;;;3.55;2.42;;;8.50;94.70;;;;;;5019071;28;20025;-49
2021/12/03 17:52:34;;;;;;;5.43;2.67;;;8.40;94.60;;;;;;5021462;28;20049;-49
2021/12/03 18:00:17;;;;;;;4.90;2.67;;;8.50;94.70;;;;;;5016100;28;20088;-49
2021/12/03 18:02:46;;;;;;;12.55;2.47;;;8.50;94.70;;;;;;5014983;28;20453;-49
2021/12/03 18:16:20;;;;;;;5.13;2.90;;;8.40;94.80;;;;;;4969572;28;20034;-49
2021/12/03 18:43:19;;;;;;;4.95;3.55;;;8.50;94.80;;;;;;4962570;28;20045;-49
2021/12/03 18:46:46;;;;;;;7.30;2.80;;;8.40;94.80;;;;;;4918071;28;20043;-49
2021/12/03 18:52:09;;;;;;;6.80;3.35;;;8.40;94.80;;;;;;4972281;28;20453;-49
2021/12/03 18:54:40;;;;;;;5.15;3.50;;;8.40;94.90;;;;;;5018706;28;20038;-49
2021/12/03 18:57:19;;;;;;;5.68;2.53;;;8.40;94.80;;;;;;5017937;28;20037;-49
2021/12/03 18:59:58;;;;;;;6.57;3.88;;;8.40;94.80;;;;;;5019190;28;20041;-49
2021/12/03 19:02:25;;;;;;;5.50;3.15;;;8.40;94.90;;;;;;5019206;28;20117;-49
2021/12/03 19:07:44;;;;;;;9.18;3.72;;;8.40;94.70;;;;;;5020427;28;20088;-49
2021/12/03 19:10:17;;;;;;;13.63;4.65;;;8.40;94.60;;;;;;5022378;28;20036;-49
2021/12/03 19:12:45;;;;;;;9.68;4.00;;;8.40;94.60;;;;;;5017216;28;20109;-49
2021/12/03 19:15:12;;;;;;;14.10;3.95;;;8.40;94.50;;;;;;5017234;28;20116;-49
2021/12/03 19:17:41;;;;;;;6.32;3.75;;;8.40;94.60;;;;;;5021504;28;20037;-49
2021/12/03 19:20:11;;;;;;;7.45;3.42;;;8.40;94.60;;;;;;5021615;28;20049;-49
2021/12/03 19:22:37;;;;;;;3.85;2.30;;;8.40;94.60;;;;;;5018469;28;20026;-49
2021/12/03 19:25:03;;;;;;;7.75;3.00;;;8.40;94.60;;;;;;5022726;28;20033;-49
2021/12/03 19:27:29;;;;;;;3.45;2.45;;;8.40;94.60;;;;;;5016194;28;20159;-49
2021/12/03 19:29:56;;;;;;;4.78;2.75;;;8.40;94.60;;;;;;5021210;28;20070;-49
2021/12/03 19:32:26;;;;;;;6.55;3.55;;;8.40;94.60;;;;;;5020383;28;20041;-49
2021/12/03 19:34:51;;;;;;;6.25;3.60;;;8.40;94.70;;;;;;5018461;28;20026;-49
2021/12/03 19:37:17;;;;;;;3.88;2.38;;;8.40;94.60;;;;;;5015484;28;20026;-49
2021/12/03 19:39:43;;;;;;;5.63;3.25;;;8.40;94.60;;;;;;5020099;28;20030;-49
2021/12/03 19:47:29;;;;;;;7.65;3.78;;;8.40;94.70;;;;;;5022287;28;20571;-49
2021/12/03 19:52:38;;;;;;;5.90;4.03;;;8.40;94.70;;;;;;5015341;28;20026;-50
2021/12/03 19:55:04;;;;;;;5.57;3.15;;;8.30;94.70;;;;;;5018135;28;20030;-49
2021/12/03 19:57:29;;;;;;;5.60;3.05;;;8.30;94.70;;;;;;5017557;28;20045;-49
2021/12/03 19:59:55;;;;;;;5.47;2.35;;;8.30;94.70;;;;;;5017823;28;20061;-49
2021/12/03 20:02:21;;;;;;;7.22;2.03;;;8.30;94.70;;;;;;5021821;28;20026;-49
2021/12/03 20:04:47;;;;;;;11.60;3.60;;;8.30;94.70;;;;;;5019602;28;20033;-49
2021/12/03 20:07:13;;;;;;;4.88;2.90;;;8.30;94.70;;;;;;5016760;28;20118;-49
2021/12/03 20:10:00;;;;;;;5.05;2.45;;;8.30;94.70;;;;;;5012636;28;20030;-49
2021/12/03 20:12:26;;;;;;;4.60;3.33;;;8.30;94.80;;;;;;5022065;28;20414;-49
2021/12/03 20:14:52;;;;;;;3.65;2.55;;;8.30;95.10;;;;;;5018415;28;20360;-49
2021/12/03 20:19:49;;;;;;;5.60;3.00;;;8.30;94.70;;;;;;5018894;28;20025;-49
2021/12/03 20:22:20;;;;;;;3.85;2.63;;;8.30;94.80;;;;;;5020521;28;20034;-49
2021/12/03 20:27:59;;;;;;;4.88;2.35;;;8.30;94.80;;;;;;4986936;28;20395;-49
2021/12/03 20:38:17;;;;;;;5.28;3.08;;;8.30;94.80;;;;;;5017031;28;20068;-49
2021/12/03 20:40:43;;;;;;;6.05;3.00;;;8.30;94.80;;;;;;5021618;28;20079;-49
2021/12/03 21:09:37;;;;;;;3.42;2.08;;;8.20;94.70;;;;;;5021954;28;20463;-49